Time;durP1;ratioP1;P1;durP2;ratioP2;P2;SDS_P1;SDS_P2;PMS_P1;PMS_P2;Temp;Humidity;BMP_temperature;BMP_pressure;BME280_temperature;BME280_humidity;BME280_pressure;Samples;Min_cycle;Max_cycle;Signal;HPM_P1;HPM_P2
2023/09/20 00:01:27;;;;;;;0.60;0.60;;;;;;;;;;5119402;27;20209;-65
2023/09/20 00:03:54;;;;;;;2.38;0.70;;;;;;;;;;5119539;27;20233;-64
2023/09/20 00:06:21;;;;;;;2.35;0.60;;;;;;;;;;5116338;27;20209;-64
2023/09/20 00:08:50;;;;;;;1.75;0.68;;;;;;;;;;5118016;28;20663;-64
2023/09/20 00:11:18;;;;;;;1.65;0.70;;;;;;;;;;5117881;27;20194;-65
2023/09/20 00:13:45;;;;;;;0.93;0.63;;;;;;;;;;5127272;27;20700;-64
2023/09/20 00:16:13;;;;;;;0.70;0.70;;;;;;;;;;5127900;27;20194;-64
2023/09/20 00:18:40;;;;;;;0.52;0.52;;;;;;;;;;5113686;27;20206;-65
2023/09/20 00:21:07;;;;;;;0.63;0.63;;;;;;;;;;5112294;28;20213;-64
2023/09/20 00:23:35;;;;;;;0.75;0.60;;;;;;;;;;5112614;27;20209;-65
2023/09/20 00:26:03;;;;;;;0.60;0.60;;;;;;;;;;5112165;28;20210;-65
2023/09/20 00:28:32;;;;;;;0.90;0.90;;;;;;;;;;5112123;27;20225;-65
2023/09/20 00:30:59;;;;;;;0.57;0.57;;;;;;;;;;5125140;27;20208;-65
2023/09/20 00:33:27;;;;;;;0.60;0.60;;;;;;;;;;5121603;27;20232;-65
2023/09/20 00:35:54;;;;;;;0.70;0.70;;;;;;;;;;5132725;27;20730;-64
2023/09/20 00:38:21;;;;;;;0.55;0.55;;;;;;;;;;5125576;27;20659;-64
2023/09/20 00:40:48;;;;;;;0.70;0.70;;;;;;;;;;5112133;27;20217;-64
2023/09/20 00:43:23;;;;;;;1.42;0.70;;;;;;;;;;5111743;27;20209;-65
2023/09/20 00:45:50;;;;;;;2.30;0.77;;;;;;;;;;5131726;27;20204;-64
2023/09/20 00:48:19;;;;;;;0.68;0.68;;;;;;;;;;5126295;27;20225;-64
2023/09/20 00:50:46;;;;;;;2.28;0.60;;;;;;;;;;5121230;27;20247;-65
2023/09/20 00:53:14;;;;;;;2.03;0.75;;;;;;;;;;5124095;27;20206;-64
2023/09/20 00:55:42;;;;;;;2.55;0.65;;;;;;;;;;5124809;27;20666;-65
2023/09/20 00:58:13;;;;;;;0.57;0.57;;;;;;;;;;5128638;27;20201;-64
2023/09/20 01:00:43;;;;;;;1.50;0.60;;;;;;;;;;5108498;28;20201;-65
2023/09/20 01:03:11;;;;;;;0.77;0.65;;;;;;;;;;5108234;27;20233;-65
2023/09/20 01:05:39;;;;;;;0.70;0.70;;;;;;;;;;5121487;27;20240;-64
2023/09/20 01:08:07;;;;;;;0.82;0.70;;;;;;;;;;5122188;27;20225;-64
2023/09/20 01:10:36;;;;;;;0.80;0.80;;;;;;;;;;5128833;27;20243;-64
2023/09/20 01:13:04;;;;;;;2.38;0.80;;;;;;;;;;5114232;27;20296;-65
2023/09/20 01:15:31;;;;;;;2.85;0.70;;;;;;;;;;5112827;27;20197;-65
2023/09/20 01:18:01;;;;;;;0.70;0.70;;;;;;;;;;5113625;27;20190;-64
2023/09/20 01:20:29;;;;;;;2.92;0.77;;;;;;;;;;5110216;28;20259;-64
2023/09/20 01:22:58;;;;;;;2.42;0.80;;;;;;;;;;5110117;27;20209;-65
2023/09/20 01:25:26;;;;;;;0.90;0.77;;;;;;;;;;5110039;27;20210;-65
2023/09/20 01:27:55;;;;;;;1.20;0.75;;;;;;;;;;5125811;27;20240;-65
2023/09/20 01:30:24;;;;;;;0.98;0.80;;;;;;;;;;5130520;27;20249;-65
2023/09/20 01:32:53;;;;;;;0.95;0.80;;;;;;;;;;5110325;28;20306;-65
2023/09/20 01:35:19;;;;;;;0.60;0.60;;;;;;;;;;5122280;27;20206;-65
2023/09/20 01:37:46;;;;;;;0.70;0.70;;;;;;;;;;5123914;27;20197;-65
2023/09/20 01:40:16;;;;;;;0.85;0.70;;;;;;;;;;5129995;27;20208;-65
2023/09/20 01:42:46;;;;;;;2.05;0.70;;;;;;;;;;5118233;27;20201;-65
2023/09/20 01:45:16;;;;;;;0.80;0.80;;;;;;;;;;5127843;27;20205;-64
2023/09/20 01:47:44;;;;;;;0.85;0.75;;;;;;;;;;5129055;27;20585;-65
2023/09/20 01:50:11;;;;;;;0.73;0.73;;;;;;;;;;5130401;27;20228;-65
2023/09/20 01:52:39;;;;;;;2.40;1.00;;;;;;;;;;5112757;27;20237;-65
2023/09/20 01:55:07;;;;;;;1.70;0.82;;;;;;;;;;5114227;27;20204;-65
2023/09/20 01:57:36;;;;;;;0.70;0.70;;;;;;;;;;5125640;27;20286;-65
2023/09/20 02:00:13;;;;;;;0.57;0.57;;;;;;;;;;5116513;27;20274;-65
2023/09/20 02:02:40;;;;;;;0.75;0.70;;;;;;;;;;5124389;27;20269;-65
2023/09/20 02:05:09;;;;;;;0.60;0.60;;;;;;;;;;5120242;27;20197;-65
2023/09/20 02:07:37;;;;;;;1.77;0.80;;;;;;;;;;5128464;27;20301;-65
2023/09/20 02:10:04;;;;;;;0.60;0.60;;;;;;;;;;5116590;27;20753;-65
2023/09/20 02:12:31;;;;;;;0.80;0.80;;;;;;;;;;5127450;27;20270;-65
2023/09/20 02:15:00;;;;;;;1.00;1.00;;;;;;;;;;5127282;27;20217;-65
2023/09/20 02:17:28;;;;;;;0.77;0.77;;;;;;;;;;5109739;28;20205;-64
2023/09/20 02:19:55;;;;;;;4.35;0.80;;;;;;;;;;5110724;27;20202;-65
2023/09/20 02:22:22;;;;;;;1.27;0.82;;;;;;;;;;5123741;27;20205;-64
2023/09/20 02:24:50;;;;;;;0.70;0.70;;;;;;;;;;5127500;27;20261;-65
2023/09/20 02:27:17;;;;;;;0.93;0.93;;;;;;;;;;5118382;27;20244;-65
2023/09/20 02:29:44;;;;;;;0.95;0.95;;;;;;;;;;5128088;27;20274;-65
2023/09/20 02:32:13;;;;;;;1.65;1.10;;;;;;;;;;5122288;27;20219;-65
2023/09/20 02:34:40;;;;;;;1.58;0.80;;;;;;;;;;5127543;27;20225;-65
2023/09/20 02:37:07;;;;;;;1.95;1.30;;;;;;;;;;5127754;27;20228;-64
2023/09/20 02:39:35;;;;;;;2.58;1.27;;;;;;;;;;5113465;27;20240;-65
2023/09/20 02:42:02;;;;;;;2.72;0.88;;;;;;;;;;5126825;27;20207;-65
2023/09/20 02:44:29;;;;;;;0.90;0.90;;;;;;;;;;5109189;28;20360;-65
2023/09/20 02:46:56;;;;;;;1.33;0.98;;;;;;;;;;5128613;27;20209;-65
2023/09/20 02:49:24;;;;;;;0.80;0.80;;;;;;;;;;5113412;27;20228;-65
2023/09/20 02:51:52;;;;;;;0.98;0.98;;;;;;;;;;5117451;27;20223;-65
2023/09/20 02:54:19;;;;;;;1.02;1.00;;;;;;;;;;5108721;27;20228;-65
2023/09/20 02:56:46;;;;;;;0.93;0.93;;;;;;;;;;5122801;27;20228;-65
2023/09/20 02:59:13;;;;;;;1.92;1.00;;;;;;;;;;5117447;27;20204;-65
2023/09/20 03:01:40;;;;;;;1.00;1.00;;;;;;;;;;5122389;27;20236;-65
2023/09/20 03:04:08;;;;;;;0.75;0.75;;;;;;;;;;5124262;27;20224;-65
2023/09/20 03:06:36;;;;;;;2.25;1.13;;;;;;;;;;5128233;27;20255;-65
2023/09/20 03:09:06;;;;;;;1.20;1.08;;;;;;;;;;5108643;28;20236;-65
2023/09/20 03:11:35;;;;;;;2.28;0.90;;;;;;;;;;5115379;27;20252;-65
2023/09/20 03:14:08;;;;;;;1.77;1.05;;;;;;;;;;5108804;28;20194;-64
2023/09/20 03:16:35;;;;;;;1.05;1.02;;;;;;;;;;5108981;28;20216;-65
2023/09/20 03:19:02;;;;;;;1.13;1.13;;;;;;;;;;5124780;28;20217;-64
2023/09/20 03:21:29;;;;;;;1.38;0.90;;;;;;;;;;5125505;27;20284;-65
2023/09/20 03:23:59;;;;;;;1.20;1.10;;;;;;;;;;5109479;28;20201;-65
2023/09/20 03:26:27;;;;;;;0.93;0.93;;;;;;;;;;5108630;28;20205;-65
2023/09/20 03:28:57;;;;;;;0.90;0.90;;;;;;;;;;5121197;28;20235;-65
2023/09/20 03:31:26;;;;;;;3.05;1.15;;;;;;;;;;5124146;27;20205;-65
2023/09/20 03:33:54;;;;;;;1.10;1.00;;;;;;;;;;5125648;27;20225;-64
2023/09/20 03:36:21;;;;;;;0.88;0.88;;;;;;;;;;5111865;27;20209;-65
2023/09/20 03:38:48;;;;;;;1.30;1.20;;;;;;;;;;5113168;28;20193;-65
2023/09/20 03:41:17;;;;;;;1.30;1.05;;;;;;;;;;5114496;27;20201;-65
2023/09/20 03:43:44;;;;;;;2.17;1.30;;;;;;;;;;5116897;27;20225;-65
2023/09/20 03:46:12;;;;;;;2.95;1.40;;;;;;;;;;5124655;27;20625;-65
2023/09/20 03:48:39;;;;;;;1.20;1.20;;;;;;;;;;5117502;27;20288;-65
2023/09/20 03:51:07;;;;;;;1.02;1.02;;;;;;;;;;5132279;27;20707;-65
2023/09/20 03:53:37;;;;;;;1.00;1.00;;;;;;;;;;5129872;27;20743;-65
2023/09/20 03:56:05;;;;;;;1.08;1.08;;;;;;;;;;5132797;27;20244;-65
2023/09/20 03:58:34;;;;;;;1.02;0.77;;;;;;;;;;5133065;27;20257;-65
2023/09/20 04:01:03;;;;;;;2.08;1.00;;;;;;;;;;5115112;27;20688;-64
2023/09/20 04:03:30;;;;;;;2.33;1.13;;;;;;;;;;5120739;27;20282;-65
2023/09/20 04:05:59;;;;;;;1.00;1.00;;;;;;;;;;5114927;27;20201;-64
2023/09/20 04:08:26;;;;;;;1.25;1.15;;;;;;;;;;5112897;28;20252;-65
2023/09/20 04:10:53;;;;;;;1.17;1.17;;;;;;;;;;5130142;27;20209;-64
2023/09/20 04:13:21;;;;;;;1.77;1.20;;;;;;;;;;5133233;27;20217;-65
2023/09/20 04:15:49;;;;;;;1.30;1.30;;;;;;;;;;5120666;27;20205;-65
2023/09/20 04:18:16;;;;;;;1.63;1.20;;;;;;;;;;5112602;28;20198;-65
2023/09/20 04:20:45;;;;;;;2.92;1.25;;;;;;;;;;5112369;28;20232;-65
2023/09/20 04:23:12;;;;;;;1.35;1.33;;;;;;;;;;5112383;27;20228;-65
2023/09/20 04:25:40;;;;;;;1.58;1.13;;;;;;;;;;5118530;27;20209;-65
2023/09/20 04:28:07;;;;;;;3.72;1.20;;;;;;;;;;5121609;27;20222;-65
2023/09/20 04:30:34;;;;;;;1.58;1.00;;;;;;;;;;5133017;27;20213;-65
2023/09/20 04:33:04;;;;;;;1.73;1.27;;;;;;;;;;5121510;27;20201;-65
2023/09/20 04:35:31;;;;;;;1.75;1.38;;;;;;;;;;5125534;27;20205;-65
2023/09/20 04:37:58;;;;;;;0.98;0.98;;;;;;;;;;5123485;27;20232;-64
2023/09/20 04:40:26;;;;;;;1.38;1.20;;;;;;;;;;5111883;28;20214;-65
2023/09/20 04:42:53;;;;;;;2.95;1.38;;;;;;;;;;5128876;27;20231;-64
2023/09/20 04:45:22;;;;;;;1.00;0.80;;;;;;;;;;5130467;27;20296;-65
2023/09/20 04:47:49;;;;;;;2.30;1.10;;;;;;;;;;5127738;27;20720;-65
2023/09/20 04:50:18;;;;;;;1.13;1.05;;;;;;;;;;5120064;27;20198;-65
2023/09/20 04:52:47;;;;;;;1.25;1.25;;;;;;;;;;5119532;27;20264;-65
2023/09/20 04:55:14;;;;;;;1.77;1.33;;;;;;;;;;5130697;27;20616;-64
2023/09/20 04:57:41;;;;;;;2.13;0.98;;;;;;;;;;5121901;27;20232;-65
2023/09/20 05:00:09;;;;;;;1.10;1.10;;;;;;;;;;5123842;27;20238;-65
2023/09/20 05:02:36;;;;;;;2.42;1.10;;;;;;;;;;5120933;27;21130;-65
2023/09/20 05:05:04;;;;;;;1.67;1.35;;;;;;;;;;5121112;27;20209;-65
2023/09/20 05:07:34;;;;;;;1.08;1.08;;;;;;;;;;5116373;27;20212;-65
2023/09/20 05:10:01;;;;;;;3.85;1.13;;;;;;;;;;5125808;27;20226;-65
2023/09/20 05:12:28;;;;;;;1.60;1.52;;;;;;;;;;5131971;27;20200;-64
2023/09/20 05:14:55;;;;;;;1.75;1.20;;;;;;;;;;5132376;27;20213;-65
2023/09/20 05:17:22;;;;;;;1.27;1.23;;;;;;;;;;5131523;27;20204;-65
2023/09/20 05:19:49;;;;;;;1.20;1.20;;;;;;;;;;5128526;27;20225;-70
2023/09/20 05:22:16;;;;;;;1.13;1.13;;;;;;;;;;5119526;27;20209;-65
2023/09/20 05:24:45;;;;;;;2.80;1.30;;;;;;;;;;5125209;27;20201;-65
2023/09/20 05:27:12;;;;;;;1.40;1.15;;;;;;;;;;5128067;27;20201;-65
2023/09/20 05:29:39;;;;;;;1.83;1.50;;;;;;;;;;5113034;27;20220;-65
2023/09/20 05:32:07;;;;;;;2.60;1.40;;;;;;;;;;5117335;27;20189;-65
2023/09/20 05:34:34;;;;;;;1.25;1.15;;;;;;;;;;5114576;27;20206;-66
2023/09/20 05:37:02;;;;;;;1.67;1.67;;;;;;;;;;5123010;27;20330;-69
2023/09/20 05:39:29;;;;;;;3.83;1.20;;;;;;;;;;5113279;27;20204;-66
2023/09/20 05:41:59;;;;;;;1.17;1.10;;;;;;;;;;5112471;27;20284;-63
2023/09/20 05:44:26;;;;;;;1.70;1.50;;;;;;;;;;5131439;27;20237;-64
2023/09/20 05:46:53;;;;;;;2.30;1.35;;;;;;;;;;5116364;27;20574;-65
2023/09/20 05:49:21;;;;;;;2.50;1.55;;;;;;;;;;5129455;27;20238;-65
2023/09/20 05:51:50;;;;;;;3.60;1.35;;;;;;;;;;5129538;27;20732;-65
2023/09/20 05:54:19;;;;;;;1.20;1.20;;;;;;;;;;5118953;27;20274;-65
2023/09/20 05:56:46;;;;;;;1.40;1.30;;;;;;;;;;5131228;27;20232;-65
2023/09/20 05:59:15;;;;;;;2.72;1.45;;;;;;;;;;5122854;27;20268;-65
2023/09/20 06:01:42;;;;;;;1.20;1.20;;;;;;;;;;5118236;27;20219;-65
2023/09/20 06:04:11;;;;;;;0.95;0.95;;;;;;;;;;5130809;27;20606;-65
2023/09/20 06:06:38;;;;;;;1.77;1.52;;;;;;;;;;5127351;27;20209;-64
2023/09/20 06:09:06;;;;;;;2.50;1.60;;;;;;;;;;5113165;27;20229;-64
2023/09/20 06:11:33;;;;;;;1.55;1.45;;;;;;;;;;5125162;27;20206;-64
2023/09/20 06:14:00;;;;;;;1.67;1.58;;;;;;;;;;5118191;27;20236;-64
2023/09/20 06:16:28;;;;;;;1.10;1.10;;;;;;;;;;5124353;27;20197;-64
2023/09/20 06:18:55;;;;;;;2.10;1.50;;;;;;;;;;5115360;27;20209;-65
2023/09/20 06:21:23;;;;;;;1.40;1.30;;;;;;;;;;5112049;27;20197;-64
2023/09/20 06:23:50;;;;;;;1.63;1.52;;;;;;;;;;5129047;27;20212;-65
2023/09/20 06:26:18;;;;;;;2.28;1.40;;;;;;;;;;5130425;27;20608;-64
2023/09/20 06:28:45;;;;;;;1.98;1.45;;;;;;;;;;5129770;27;20229;-66
2023/09/20 06:31:14;;;;;;;1.30;1.20;;;;;;;;;;5130324;27;20228;-64
2023/09/20 06:33:44;;;;;;;2.67;1.60;;;;;;;;;;5130381;27;20204;-63
2023/09/20 06:36:17;;;;;;;1.33;1.33;;;;;;;;;;5115231;27;20210;-64
2023/09/20 06:38:44;;;;;;;1.40;1.30;;;;;;;;;;5108629;28;20197;-66
2023/09/20 06:41:12;;;;;;;3.58;1.10;;;;;;;;;;5108518;28;20202;-61
2023/09/20 06:43:39;;;;;;;2.92;1.40;;;;;;;;;;5110370;27;20211;-60
2023/09/20 06:46:07;;;;;;;2.05;1.63;;;;;;;;;;5129367;27;20209;-64
2023/09/20 06:48:34;;;;;;;1.67;1.58;;;;;;;;;;5109634;27;20220;-61
2023/09/20 06:51:03;;;;;;;2.35;1.48;;;;;;;;;;5108744;28;20236;-61
2023/09/20 06:53:30;;;;;;;1.52;1.42;;;;;;;;;;5121462;27;20604;-61
2023/09/20 06:55:59;;;;;;;1.30;1.30;;;;;;;;;;5109310;27;20212;-61
2023/09/20 06:58:26;;;;;;;1.23;1.23;;;;;;;;;;5108589;27;20730;-61
2023/09/20 07:00:54;;;;;;;1.35;1.27;;;;;;;;;;5119895;27;20212;-61
2023/09/20 07:03:22;;;;;;;1.55;1.42;;;;;;;;;;5127361;27;20240;-61
2023/09/20 07:05:50;;;;;;;1.30;1.20;;;;;;;;;;5128845;27;20205;-61
2023/09/20 07:08:21;;;;;;;1.88;1.52;;;;;;;;;;5128872;27;20209;-61
2023/09/20 07:10:50;;;;;;;4.07;1.58;;;;;;;;;;5129151;27;20227;-61
2023/09/20 07:13:18;;;;;;;1.52;1.52;;;;;;;;;;5129000;27;20205;-61
2023/09/20 07:15:46;;;;;;;1.63;1.52;;;;;;;;;;5114180;27;20386;-61
2023/09/20 07:18:13;;;;;;;3.15;1.70;;;;;;;;;;5108474;28;20617;-64
2023/09/20 07:20:41;;;;;;;1.45;1.27;;;;;;;;;;5128241;27;20292;-63
2023/09/20 07:23:10;;;;;;;1.20;1.20;;;;;;;;;;5133203;27;20201;-63
2023/09/20 07:25:39;;;;;;;3.70;1.30;;;;;;;;;;5133250;27;20295;-63
2023/09/20 07:28:07;;;;;;;1.38;1.38;;;;;;;;;;5133305;27;20207;-63
2023/09/20 07:30:39;;;;;;;1.92;1.35;;;;;;;;;;5132997;27;20721;-61
2023/09/20 07:33:11;;;;;;;1.13;1.13;;;;;;;;;;5132473;27;20219;-62
2023/09/20 07:35:38;;;;;;;1.75;1.50;;;;;;;;;;5112179;28;20209;-62
2023/09/20 07:38:14;;;;;;;1.45;1.35;;;;;;;;;;5112311;28;20701;-62
2023/09/20 07:40:43;;;;;;;1.42;1.40;;;;;;;;;;5110690;27;20659;-62
2023/09/20 07:43:11;;;;;;;2.80;1.08;;;;;;;;;;5118873;27;20228;-64
2023/09/20 07:45:39;;;;;;;3.30;1.80;;;;;;;;;;5117121;27;20289;-61
2023/09/20 07:48:11;;;;;;;1.85;1.75;;;;;;;;;;5112273;28;20221;-61
2023/09/20 07:50:40;;;;;;;2.63;1.58;;;;;;;;;;5114296;27;20260;-61
2023/09/20 07:53:09;;;;;;;2.78;1.55;;;;;;;;;;5130792;27;20288;-61
2023/09/20 07:55:37;;;;;;;1.40;1.40;;;;;;;;;;5111690;27;20250;-61
2023/09/20 07:58:05;;;;;;;2.17;1.58;;;;;;;;;;5118797;27;20688;-62
2023/09/20 08:00:35;;;;;;;3.63;1.80;;;;;;;;;;5132349;27;20288;-59
2023/09/20 08:03:05;;;;;;;1.80;1.70;;;;;;;;;;5126567;27;20731;-62
2023/09/20 08:05:33;;;;;;;4.20;1.67;;;;;;;;;;5128700;27;20205;-61
2023/09/20 08:08:00;;;;;;;5.28;1.80;;;;;;;;;;5132329;27;20208;-61
2023/09/20 08:10:27;;;;;;;1.65;1.48;;;;;;;;;;5131841;27;20228;-62
2023/09/20 08:12:54;;;;;;;2.92;1.52;;;;;;;;;;5132406;27;20208;-61
2023/09/20 08:15:22;;;;;;;2.50;1.50;;;;;;;;;;5130733;27;20266;-61
2023/09/20 08:20:37;;;;;;;1.63;1.52;;;;;;;;;;5131762;27;20261;-64
2023/09/20 09:01:37;;;;;;;1.40;1.30;;;;;;;;;;5127889;27;20208;-64
2023/09/20 09:04:06;;;;;;;1.95;1.40;;;;;;;;;;5128644;27;20706;-64
2023/09/20 09:06:33;;;;;;;1.58;1.48;;;;;;;;;;5130658;27;20209;-64
2023/09/20 09:09:01;;;;;;;1.50;1.40;;;;;;;;;;5131425;27;20532;-64
2023/09/20 09:11:28;;;;;;;3.05;1.48;;;;;;;;;;5112807;27;20246;-64
2023/09/20 09:13:58;;;;;;;1.02;1.02;;;;;;;;;;5110649;28;20217;-63
2023/09/20 09:16:26;;;;;;;2.60;0.80;;;;;;;;;;5109111;28;20291;-65
2023/09/20 09:18:53;;;;;;;0.70;0.70;;;;;;;;;;5110858;28;20237;-63
2023/09/20 09:21:22;;;;;;;1.05;1.05;;;;;;;;;;5116519;27;20225;-64
2023/09/20 09:23:49;;;;;;;2.92;1.38;;;;;;;;;;5115904;27;20617;-64
2023/09/20 09:26:17;;;;;;;1.23;1.13;;;;;;;;;;5130136;27;20209;-64
2023/09/20 09:28:45;;;;;;;0.90;0.90;;;;;;;;;;5130644;27;20208;-64
2023/09/20 09:31:14;;;;;;;0.88;0.88;;;;;;;;;;5131169;27;20220;-65
2023/09/20 09:33:41;;;;;;;1.08;1.08;;;;;;;;;;5131324;27;20209;-64
2023/09/20 09:36:10;;;;;;;1.20;1.10;;;;;;;;;;5130026;27;20209;-64
2023/09/20 09:38:39;;;;;;;3.53;1.17;;;;;;;;;;5129493;27;20201;-64
2023/09/20 09:41:08;;;;;;;2.53;0.90;;;;;;;;;;5131100;27;20658;-65
2023/09/20 09:43:35;;;;;;;1.40;0.80;;;;;;;;;;5128126;27;20209;-64
2023/09/20 09:46:06;;;;;;;0.77;0.70;;;;;;;;;;5131096;27;20216;-64
2023/09/20 09:48:33;;;;;;;1.10;0.95;;;;;;;;;;5130951;27;20205;-64
2023/09/20 09:51:01;;;;;;;1.17;0.93;;;;;;;;;;5130615;27;20224;-63
2023/09/20 09:53:30;;;;;;;1.08;0.98;;;;;;;;;;5130976;27;20216;-64
2023/09/20 09:55:59;;;;;;;4.05;0.88;;;;;;;;;;5131019;27;20205;-64
2023/09/20 09:58:27;;;;;;;2.05;0.80;;;;;;;;;;5128918;27;20196;-64
2023/09/20 10:00:55;;;;;;;1.30;0.80;;;;;;;;;;5129445;27;20720;-63
2023/09/20 10:03:32;;;;;;;1.20;1.10;;;;;;;;;;5114002;27;20266;-62
2023/09/20 10:06:05;;;;;;;0.70;0.70;;;;;;;;;;5127895;27;20458;-66
2023/09/20 10:08:33;;;;;;;0.98;0.60;;;;;;;;;;5127808;27;20258;-66
2023/09/20 10:11:05;;;;;;;0.60;0.60;;;;;;;;;;5130911;27;20240;-74
2023/09/20 10:13:33;;;;;;;2.05;0.85;;;;;;;;;;5130964;27;20662;-62
2023/09/20 10:16:02;;;;;;;1.10;0.80;;;;;;;;;;5130918;27;20216;-69
2023/09/20 10:18:32;;;;;;;1.65;0.52;;;;;;;;;;5127440;27;20718;-76
2023/09/20 10:21:04;;;;;;;4.47;0.80;;;;;;;;;;5121944;27;20204;-70
2023/09/20 10:23:32;;;;;;;1.00;0.75;;;;;;;;;;5115857;27;20205;-69
2023/09/20 10:26:01;;;;;;;1.13;0.82;;;;;;;;;;5129800;27;20212;-70
2023/09/20 10:28:33;;;;;;;1.10;1.10;;;;;;;;;;5112996;27;20683;-70
2023/09/20 10:31:03;;;;;;;0.85;0.85;;;;;;;;;;5128979;27;20235;-75
2023/09/20 10:33:41;;;;;;;0.70;0.70;;;;;;;;;;5128209;27;20216;-70
2023/09/20 10:36:08;;;;;;;0.70;0.70;;;;;;;;;;5118359;27;20295;-70
2023/09/20 10:38:35;;;;;;;1.40;0.73;;;;;;;;;;5128450;27;20623;-69
2023/09/20 10:41:07;;;;;;;0.80;0.73;;;;;;;;;;5127551;27;20556;-70
2023/09/20 10:43:54;;;;;;;0.65;0.65;;;;;;;;;;5127684;27;20216;-69
2023/09/20 10:46:23;;;;;;;0.68;0.68;;;;;;;;;;5127876;27;20244;-68
2023/09/20 10:48:51;;;;;;;0.98;0.98;;;;;;;;;;5126158;27;20216;-68
2023/09/20 10:51:37;;;;;;;0.77;0.77;;;;;;;;;;5127544;27;20256;-70
2023/09/20 10:54:10;;;;;;;2.60;0.80;;;;;;;;;;5126481;27;20197;-68
2023/09/20 10:57:05;;;;;;;0.60;0.60;;;;;;;;;;5119868;27;20226;-68
2023/09/20 10:59:34;;;;;;;0.88;0.85;;;;;;;;;;5101824;27;20213;-70
2023/09/20 11:02:03;;;;;;;1.67;0.70;;;;;;;;;;5127211;27;20214;-70
2023/09/20 11:04:30;;;;;;;0.70;0.70;;;;;;;;;;5112028;27;20248;-70
2023/09/20 11:06:59;;;;;;;2.33;0.90;;;;;;;;;;5112728;27;20606;-69
2023/09/20 11:09:30;;;;;;;0.75;0.60;;;;;;;;;;5118571;27;20248;-69
2023/09/20 11:12:04;;;;;;;2.97;0.65;;;;;;;;;;5118379;27;20662;-69
2023/09/20 11:14:31;;;;;;;0.77;0.77;;;;;;;;;;5124236;27;20208;-69
2023/09/20 11:17:01;;;;;;;1.50;0.75;;;;;;;;;;5117876;27;20205;-69
2023/09/20 11:19:29;;;;;;;1.20;0.70;;;;;;;;;;5122106;27;20702;-69
2023/09/20 11:21:56;;;;;;;0.85;0.75;;;;;;;;;;5119919;27;20206;-70
2023/09/20 11:24:24;;;;;;;1.48;0.77;;;;;;;;;;5127775;27;20224;-70
2023/09/20 11:26:53;;;;;;;0.82;0.70;;;;;;;;;;5122813;27;20212;-69
2023/09/20 11:29:20;;;;;;;3.22;0.80;;;;;;;;;;5127900;27;20209;-70
2023/09/20 11:31:48;;;;;;;0.65;0.60;;;;;;;;;;5114462;27;20264;-69
2023/09/20 11:34:33;;;;;;;0.85;0.65;;;;;;;;;;5108700;28;20201;-69
2023/09/20 11:37:03;;;;;;;0.70;0.70;;;;;;;;;;5112834;28;20197;-60
2023/09/20 11:39:30;;;;;;;3.20;0.73;;;;;;;;;;5120445;27;20213;-67
2023/09/20 11:41:59;;;;;;;0.60;0.60;;;;;;;;;;5122704;27;20236;-64
2023/09/20 11:44:26;;;;;;;2.95;0.70;;;;;;;;;;5116392;27;20209;-64
2023/09/20 11:46:54;;;;;;;1.10;1.10;;;;;;;;;;5118805;27;20216;-67
2023/09/20 11:49:22;;;;;;;4.07;1.00;;;;;;;;;;5108251;28;20221;-60
2023/09/20 11:51:49;;;;;;;0.90;0.90;;;;;;;;;;5119973;27;20228;-65
2023/09/20 11:54:17;;;;;;;5.63;4.47;;;;;;;;;;5115766;27;20297;-66
2023/09/20 11:56:48;;;;;;;16.10;8.48;;;;;;;;;;5127340;27;20239;-62
2023/09/20 11:59:19;;;;;;;10.13;6.53;;;;;;;;;;5110053;27;20221;-66
2023/09/20 12:01:46;;;;;;;11.40;6.45;;;;;;;;;;5114359;27;20208;-65
2023/09/20 12:04:14;;;;;;;1.63;1.45;;;;;;;;;;5126417;27;20794;-65
2023/09/20 12:06:41;;;;;;;6.18;3.25;;;;;;;;;;5112307;27;20205;-65
2023/09/20 12:09:09;;;;;;;0.70;0.70;;;;;;;;;;5126772;27;20217;-66
2023/09/20 12:11:38;;;;;;;1.17;1.08;;;;;;;;;;5124495;27;20890;-66
2023/09/20 12:14:06;;;;;;;2.78;0.95;;;;;;;;;;5123752;27;20230;-68
2023/09/20 12:16:33;;;;;;;0.90;0.90;;;;;;;;;;5117813;27;20206;-68
2023/09/20 12:19:00;;;;;;;1.15;1.15;;;;;;;;;;5116611;27;20204;-67
2023/09/20 12:21:27;;;;;;;1.13;0.85;;;;;;;;;;5119694;27;20219;-66
2023/09/20 12:23:55;;;;;;;0.90;0.90;;;;;;;;;;5110366;28;20573;-65
2023/09/20 12:26:24;;;;;;;2.35;1.08;;;;;;;;;;5130499;27;20201;-64
2023/09/20 12:28:53;;;;;;;1.55;0.90;;;;;;;;;;5124559;27;20237;-66
2023/09/20 12:31:23;;;;;;;1.05;0.90;;;;;;;;;;5123059;27;20225;-65
2023/09/20 12:33:50;;;;;;;0.73;0.73;;;;;;;;;;5118308;27;20206;-63
2023/09/20 12:36:17;;;;;;;2.67;0.80;;;;;;;;;;5124761;27;20197;-66
2023/09/20 12:38:44;;;;;;;2.28;1.85;;;;;;;;;;5119091;27;20299;-61
2023/09/20 12:41:11;;;;;;;0.90;0.90;;;;;;;;;;5125405;27;20200;-67
2023/09/20 12:43:38;;;;;;;0.60;0.60;;;;;;;;;;5126232;27;20689;-67
2023/09/20 12:46:07;;;;;;;0.90;0.90;;;;;;;;;;5131442;27;20213;-67
2023/09/20 12:48:36;;;;;;;1.65;0.90;;;;;;;;;;5130662;27;20626;-67
2023/09/20 12:51:04;;;;;;;1.75;0.75;;;;;;;;;;5124171;27;20229;-67
2023/09/20 12:53:31;;;;;;;1.83;1.00;;;;;;;;;;5125941;27;20224;-66
2023/09/20 12:55:58;;;;;;;1.85;0.80;;;;;;;;;;5130176;27;20239;-67
2023/09/20 12:58:26;;;;;;;2.58;0.80;;;;;;;;;;5123069;27;20206;-67
2023/09/20 13:00:53;;;;;;;0.90;0.90;;;;;;;;;;5111149;27;20198;-67
2023/09/20 13:03:21;;;;;;;1.02;0.98;;;;;;;;;;5122737;27;20248;-67
2023/09/20 13:05:49;;;;;;;0.63;0.63;;;;;;;;;;5113645;27;20209;-67
2023/09/20 13:08:17;;;;;;;1.17;0.70;;;;;;;;;;5129546;27;20219;-67
2023/09/20 13:10:44;;;;;;;2.67;0.80;;;;;;;;;;5115132;27;20224;-67
2023/09/20 13:13:11;;;;;;;1.00;0.90;;;;;;;;;;5129821;27;20394;-68
2023/09/20 13:15:41;;;;;;;1.65;0.75;;;;;;;;;;5126884;27;20228;-67
2023/09/20 13:18:10;;;;;;;1.17;0.77;;;;;;;;;;5129290;27;20606;-67
2023/09/20 13:20:41;;;;;;;1.13;1.10;;;;;;;;;;5121928;27;20659;-66
2023/09/20 13:23:08;;;;;;;8.77;1.40;;;;;;;;;;5119626;27;20267;-68
2023/09/20 13:25:35;;;;;;;1.02;0.93;;;;;;;;;;5121023;27;20209;-67
2023/09/20 13:28:02;;;;;;;0.70;0.70;;;;;;;;;;5111314;27;20201;-67
2023/09/20 13:30:31;;;;;;;0.73;0.68;;;;;;;;;;5127556;27;20262;-67
2023/09/20 13:32:59;;;;;;;1.80;0.65;;;;;;;;;;5125346;27;20208;-67
2023/09/20 13:35:26;;;;;;;2.08;0.80;;;;;;;;;;5131151;27;20630;-66
2023/09/20 13:37:55;;;;;;;0.82;0.82;;;;;;;;;;5125773;27;20287;-68
2023/09/20 13:40:24;;;;;;;2.55;0.85;;;;;;;;;;5110675;28;20280;-68
2023/09/20 13:42:52;;;;;;;0.77;0.77;;;;;;;;;;5137116;27;20227;-70
2023/09/20 13:45:19;;;;;;;2.13;0.85;;;;;;;;;;5134715;27;20193;-67
2023/09/20 13:47:49;;;;;;;2.17;0.73;;;;;;;;;;5129961;27;20217;-68
2023/09/20 13:50:16;;;;;;;0.77;0.77;;;;;;;;;;5121713;27;20201;-68
2023/09/20 13:52:44;;;;;;;1.45;0.90;;;;;;;;;;5114577;27;20262;-66
2023/09/20 13:55:13;;;;;;;0.70;0.70;;;;;;;;;;5118783;27;20212;-67
2023/09/20 13:57:41;;;;;;;1.23;0.82;;;;;;;;;;5130837;27;20224;-66
2023/09/20 14:00:12;;;;;;;1.75;1.13;;;;;;;;;;5130548;27;20212;-67
2023/09/20 14:02:40;;;;;;;0.88;0.88;;;;;;;;;;5114311;27;20257;-66
2023/09/20 14:05:14;;;;;;;0.88;0.88;;;;;;;;;;5120216;27;20206;-65
2023/09/20 14:07:41;;;;;;;1.60;0.98;;;;;;;;;;5117634;27;20647;-65
2023/09/20 14:10:08;;;;;;;3.83;0.90;;;;;;;;;;5122420;27;20198;-65
2023/09/20 14:12:37;;;;;;;1.27;0.88;;;;;;;;;;5121342;27;20228;-66
2023/09/20 14:15:05;;;;;;;1.88;1.00;;;;;;;;;;5115245;27;20675;-66
2023/09/20 14:17:32;;;;;;;1.83;1.00;;;;;;;;;;5123037;27;20212;-66
2023/09/20 14:20:05;;;;;;;0.88;0.88;;;;;;;;;;5121188;27;20193;-66
2023/09/20 14:22:32;;;;;;;0.90;0.90;;;;;;;;;;5118564;27;20255;-66
2023/09/20 14:25:00;;;;;;;0.75;0.75;;;;;;;;;;5113876;27;20198;-66
2023/09/20 14:27:27;;;;;;;2.63;0.88;;;;;;;;;;5115395;27;20233;-67
2023/09/20 14:29:55;;;;;;;2.20;0.90;;;;;;;;;;5109706;27;20209;-67
2023/09/20 14:32:22;;;;;;;6.07;1.00;;;;;;;;;;5129571;27;20228;-68
2023/09/20 14:34:50;;;;;;;1.38;0.90;;;;;;;;;;5118167;27;20323;-68
2023/09/20 14:37:17;;;;;;;1.00;1.00;;;;;;;;;;5109387;28;20220;-67
2023/09/20 14:39:45;;;;;;;1.20;1.00;;;;;;;;;;5112771;27;20206;-68
2023/09/20 14:42:12;;;;;;;0.90;0.90;;;;;;;;;;5115297;27;20667;-67
2023/09/20 14:44:39;;;;;;;1.30;0.75;;;;;;;;;;5128810;27;20212;-69
2023/09/20 14:47:07;;;;;;;2.88;1.00;;;;;;;;;;5128736;27;20209;-67
2023/09/20 14:49:34;;;;;;;0.82;0.82;;;;;;;;;;5120774;27;20201;-68
2023/09/20 14:52:02;;;;;;;0.80;0.80;;;;;;;;;;5119385;27;20674;-67
2023/09/20 14:54:29;;;;;;;1.02;0.93;;;;;;;;;;5116118;27;20751;-70
2023/09/20 14:56:57;;;;;;;1.40;1.10;;;;;;;;;;5114321;27;20217;-69
2023/09/20 14:59:27;;;;;;;2.83;1.00;;;;;;;;;;5112253;27;20237;-70
2023/09/20 15:01:54;;;;;;;0.95;0.93;;;;;;;;;;5116605;27;20233;-69
2023/09/20 15:04:23;;;;;;;2.40;0.98;;;;;;;;;;5116932;27;20233;-68
2023/09/20 15:06:51;;;;;;;1.33;1.05;;;;;;;;;;5107020;27;20220;-69
2023/09/20 15:09:18;;;;;;;1.67;1.05;;;;;;;;;;5106447;27;20205;-69
2023/09/20 15:11:46;;;;;;;1.08;0.80;;;;;;;;;;5109031;28;20230;-67
2023/09/20 15:14:13;;;;;;;1.52;0.85;;;;;;;;;;5123832;27;20213;-68
2023/09/20 15:16:41;;;;;;;1.00;1.00;;;;;;;;;;5107257;27;20218;-68
2023/09/20 15:19:08;;;;;;;2.30;0.90;;;;;;;;;;5111004;28;20237;-67
2023/09/20 15:21:37;;;;;;;2.17;0.90;;;;;;;;;;5113075;28;20232;-67
2023/09/20 15:24:04;;;;;;;1.20;1.05;;;;;;;;;;5106460;28;20690;-67
2023/09/20 15:26:35;;;;;;;0.70;0.70;;;;;;;;;;5106428;28;20220;-67
2023/09/20 15:29:02;;;;;;;0.90;0.90;;;;;;;;;;5104575;28;20289;-67
2023/09/20 15:31:30;;;;;;;2.85;0.90;;;;;;;;;;5110523;28;20326;-65